createdAt,value
2022-09-16T00:00:35.164Z,62.21
2022-09-16T00:03:02.412Z,62.51
2022-09-16T00:05:29.902Z,62.40
2022-09-16T00:07:56.847Z,62.66
2022-09-16T00:10:24.153Z,62.92
2022-09-16T00:12:51.354Z,63.09
2022-09-16T00:15:18.414Z,62.96
2022-09-16T00:17:45.282Z,63.19
2022-09-16T00:20:12.670Z,63.36
2022-09-16T00:22:39.674Z,63.36
2022-09-16T00:25:07.140Z,63.51
2022-09-16T00:27:34.051Z,63.59
2022-09-16T00:30:01.074Z,63.82
2022-09-16T00:32:28.109Z,63.88
2022-09-16T00:34:55.005Z,63.98
2022-09-16T00:37:22.019Z,63.44
2022-09-16T00:39:49.529Z,62.96
2022-09-16T00:42:18.130Z,62.86
2022-09-16T00:44:57.977Z,63.19
2022-09-16T00:47:31.249Z,63.44
2022-09-16T00:50:10.953Z,63.94
2022-09-16T00:52:40.564Z,64.11
2022-09-16T00:55:10.054Z,64.58
2022-09-16T00:57:38.171Z,65.45
2022-09-16T01:00:07.100Z,65.62
2022-09-16T01:02:34.141Z,65.30
2022-09-16T01:05:15.630Z,65.81
2022-09-16T01:07:45.494Z,65.67
2022-09-16T01:10:18.470Z,65.56
2022-09-16T01:12:49.807Z,66.01
2022-09-16T01:15:18.171Z,66.37
2022-09-16T01:17:54.684Z,67.17
2022-09-16T01:20:39.998Z,66.79
2022-09-16T01:23:39.255Z,66.86
2022-09-16T01:26:44.413Z,66.72
2022-09-16T01:29:35.866Z,66.93
2022-09-16T01:32:12.888Z,67.08
2022-09-16T01:34:48.541Z,68.09
2022-09-16T01:37:27.607Z,67.18
2022-09-16T01:40:03.244Z,66.95
2022-09-16T01:42:57.767Z,66.50
2022-09-16T01:45:36.461Z,66.50
2022-09-16T01:48:12.013Z,66.46
2022-09-16T01:51:04.802Z,66.52
2022-09-16T01:54:03.405Z,66.52
2022-09-16T01:56:54.905Z,67.54
2022-09-16T01:59:54.869Z,67.74
2022-09-16T02:02:32.132Z,67.07
2022-09-16T02:05:03.519Z,67.07
2022-09-16T02:07:35.394Z,67.14
2022-09-16T02:10:10.849Z,67.42
2022-09-16T02:12:42.539Z,67.45
2022-09-16T02:15:14.369Z,67.50
2022-09-16T02:17:45.186Z,67.57
2022-09-16T02:20:20.125Z,68.18
2022-09-16T02:22:52.133Z,68.31
2022-09-16T02:25:20.459Z,68.17
2022-09-16T02:27:49.611Z,68.08
2022-09-16T02:30:20.280Z,68.35
2022-09-16T02:32:50.945Z,68.38
2022-09-16T02:35:20.885Z,68.58
2022-09-16T02:37:58.455Z,68.73
2022-09-16T02:40:59.238Z,68.13
2022-09-16T02:43:27.336Z,67.64
2022-09-16T02:46:16.162Z,67.45
2022-09-16T02:49:18.947Z,67.37
2022-09-16T02:52:17.857Z,67.29
2022-09-16T02:54:47.689Z,67.13
2022-09-16T02:57:15.431Z,66.95
2022-09-16T02:59:43.050Z,66.96
2022-09-16T03:02:10.064Z,66.72
2022-09-16T03:04:38.143Z,66.74
2022-09-16T03:07:08.036Z,65.87
2022-09-16T03:09:41.251Z,65.38
2022-09-16T03:12:33.924Z,65.99
2022-09-16T03:15:24.803Z,66.19
2022-09-16T03:18:24.399Z,65.51
2022-09-16T03:20:51.307Z,66.14
2022-09-16T03:23:54.901Z,66.51
2022-09-16T03:26:43.877Z,66.24
2022-09-16T03:29:23.027Z,65.99
2022-09-16T03:32:12.847Z,65.98
2022-09-16T03:34:51.949Z,66.45
2022-09-16T03:37:21.759Z,66.77
2022-09-16T03:39:55.760Z,66.77
2022-09-16T03:42:23.271Z,66.54
2022-09-16T03:44:50.247Z,66.63
2022-09-16T03:47:18.099Z,66.53
2022-09-16T03:49:45.129Z,66.47
2022-09-16T03:52:12.190Z,66.64
2022-09-16T03:54:39.315Z,66.96
2022-09-16T03:57:07.075Z,66.79
2022-09-16T03:59:34.047Z,66.85
2022-09-16T04:02:01.138Z,66.66
2022-09-16T04:04:28.163Z,66.55
2022-09-16T04:06:57.100Z,66.25
2022-09-16T04:09:24.037Z,65.51
2022-09-16T04:11:50.937Z,65.87
2022-09-16T04:14:17.841Z,66.27
2022-09-16T04:16:45.485Z,66.56
2022-09-16T04:19:14.045Z,66.27
2022-09-16T04:21:42.077Z,66.25
2022-09-16T04:24:12.820Z,66.12
2022-09-16T04:26:40.929Z,66.14
2022-09-16T04:29:08.393Z,66.28
2022-09-16T04:31:35.715Z,66.70
2022-09-16T04:34:04.002Z,66.92
2022-09-16T04:36:32.182Z,67.29
2022-09-16T04:38:59.063Z,67.38
2022-09-16T04:41:27.606Z,67.61
2022-09-16T04:43:56.840Z,67.77
2022-09-16T04:46:25.846Z,67.88
2022-09-16T04:48:54.451Z,67.77
2022-09-16T04:51:22.986Z,67.74
2022-09-16T04:53:50.551Z,67.83
2022-09-16T04:56:23.398Z,67.68
2022-09-16T04:58:52.690Z,67.49
2022-09-16T05:01:25.328Z,67.42
2022-09-16T05:03:54.627Z,67.44
2022-09-16T05:06:24.572Z,67.50
2022-09-16T05:08:53.589Z,67.35
2022-09-16T05:11:24.215Z,67.24
2022-09-16T05:13:51.835Z,67.08
2022-09-16T05:16:22.334Z,66.51
2022-09-16T05:18:51.489Z,66.44
2022-09-16T05:21:20.890Z,66.40
2022-09-16T05:23:49.270Z,66.52
2022-09-16T05:26:22.830Z,66.86
2022-09-16T05:28:53.307Z,67.40
2022-09-16T05:31:27.279Z,67.28
2022-09-16T05:34:12.650Z,67.09
2022-09-16T05:36:43.351Z,67.20
2022-09-16T05:39:22.585Z,67.28
2022-09-16T05:42:04.759Z,69.65
2022-09-16T05:44:31.748Z,67.99
2022-09-16T05:46:58.672Z,67.04
2022-09-16T05:49:25.840Z,66.55
2022-09-16T05:51:53.130Z,66.29
2022-09-16T05:54:23.876Z,65.44
2022-09-16T05:56:51.073Z,65.30
2022-09-16T05:59:21.155Z,64.97
2022-09-16T06:01:48.231Z,65.01
2022-09-16T06:04:15.923Z,64.87
2022-09-16T06:06:45.312Z,64.51
2022-09-16T06:09:15.903Z,64.26
2022-09-16T06:11:48.673Z,64.25
2022-09-16T06:14:16.891Z,64.24
2022-09-16T06:16:44.259Z,64.13
2022-09-16T06:19:13.767Z,63.84
2022-09-16T06:21:41.773Z,63.49
2022-09-16T06:24:10.166Z,64.05
2022-09-16T06:26:38.993Z,63.29
2022-09-16T06:29:06.821Z,63.11
2022-09-16T06:31:35.294Z,63.02
2022-09-16T06:34:02.628Z,63.28
2022-09-16T06:36:33.038Z,62.52
2022-09-16T06:38:59.999Z,63.38
2022-09-16T06:41:26.953Z,62.93
2022-09-16T06:43:53.975Z,62.70
2022-09-16T06:46:25.581Z,62.36
2022-09-16T06:48:58.501Z,62.45
2022-09-16T06:51:31.509Z,62.14
2022-09-16T06:54:04.172Z,61.44
2022-09-16T06:56:31.852Z,61.01
2022-09-16T06:58:59.262Z,59.98
2022-09-16T07:01:31.651Z,58.63
2022-09-16T07:04:03.495Z,58.53
2022-09-16T07:06:58.318Z,58.08
2022-09-16T07:09:20.718Z,57.75
2022-09-16T07:11:48.051Z,56.65
2022-09-16T07:14:15.838Z,56.08
2022-09-16T07:16:42.796Z,55.67
2022-09-16T07:19:10.306Z,55.51
2022-09-16T07:21:37.186Z,54.91
2022-09-16T07:24:04.780Z,54.85
2022-09-16T07:26:34.997Z,54.47
2022-09-16T07:29:04.804Z,54.26
2022-09-16T07:31:35.021Z,54.18
2022-09-16T07:34:04.965Z,53.80
2022-09-16T07:36:35.126Z,54.27
2022-09-16T07:39:03.846Z,53.54
2022-09-16T07:41:34.888Z,53.78
2022-09-16T07:44:02.824Z,53.44
2022-09-16T07:46:32.771Z,53.50
2022-09-16T07:49:02.773Z,53.48
2022-09-16T07:51:30.115Z,52.94
2022-09-16T07:54:00.994Z,52.42
2022-09-16T07:56:32.078Z,51.74
2022-09-16T07:58:59.239Z,50.87
2022-09-16T08:01:26.626Z,50.46
2022-09-16T08:03:54.184Z,50.33
2022-09-16T08:06:24.135Z,49.47
2022-09-16T08:08:53.602Z,49.31
2022-09-16T08:11:21.576Z,48.59
2022-09-16T08:13:49.101Z,48.54
2022-09-16T08:16:19.168Z,47.94
2022-09-16T08:18:48.573Z,47.19
2022-09-16T08:21:18.826Z,47.17
2022-09-16T08:23:46.507Z,47.75
2022-09-16T08:26:15.691Z,47.87
2022-09-16T08:29:04.922Z,47.94
2022-09-16T08:31:32.822Z,48.04
2022-09-16T08:33:59.737Z,48.24
2022-09-16T08:36:27.702Z,48.03
2022-09-16T08:38:57.424Z,47.64
2022-09-16T08:41:45.963Z,47.45
2022-09-16T08:44:17.963Z,48.60
2022-09-16T08:46:50.151Z,50.10
2022-09-16T08:49:44.102Z,49.83
2022-09-16T08:52:23.743Z,50.56
2022-09-16T08:54:55.514Z,50.94
2022-09-16T08:57:26.314Z,50.48
2022-09-16T08:59:59.740Z,50.47
2022-09-16T09:02:38.589Z,50.86
2022-09-16T09:05:37.087Z,51.03
2022-09-16T09:08:22.611Z,52.41
2022-09-16T09:10:57.607Z,54.21
2022-09-16T09:13:47.899Z,54.78
2022-09-16T09:16:55.885Z,54.66
2022-09-16T09:19:32.704Z,54.00
2022-09-16T09:22:14.038Z,53.50
2022-09-16T09:24:50.067Z,53.16
2022-09-16T09:27:51.882Z,52.73
2022-09-16T09:30:27.542Z,51.86
2022-09-16T09:33:34.176Z,51.88
2022-09-16T09:36:16.025Z,51.36
2022-09-16T09:39:17.008Z,51.36
2022-09-16T09:41:51.299Z,51.72
2022-09-16T09:44:58.424Z,51.94
2022-09-16T09:47:44.126Z,51.21
2022-09-16T09:50:28.066Z,53.32
2022-09-16T09:53:11.528Z,51.43
2022-09-16T09:55:40.574Z,51.61
2022-09-16T09:58:16.683Z,50.34
2022-09-16T10:00:43.725Z,50.22
2022-09-16T10:03:13.996Z,49.92
2022-09-16T10:05:41.834Z,50.21
2022-09-16T10:08:33.262Z,48.66
2022-09-16T10:11:02.167Z,48.69
2022-09-16T10:13:31.284Z,48.98
2022-09-16T10:16:13.733Z,47.71
2022-09-16T10:18:40.935Z,48.39
2022-09-16T10:21:11.809Z,47.12
2022-09-16T10:23:39.532Z,47.08
2022-09-16T10:26:24.420Z,45.92
2022-09-16T10:28:55.640Z,46.38
2022-09-16T10:31:27.252Z,45.85
2022-09-16T10:33:57.843Z,45.85
2022-09-16T10:36:27.936Z,45.45
2022-09-16T10:39:04.836Z,45.30
2022-09-16T10:41:42.681Z,44.21
2022-09-16T10:44:24.217Z,43.14
2022-09-16T10:46:57.345Z,42.78
2022-09-16T10:49:55.609Z,41.42
2022-09-16T10:52:28.081Z,42.32
2022-09-16T10:54:55.942Z,42.49
2022-09-16T10:57:27.828Z,42.72
2022-09-16T11:00:06.752Z,42.65
2022-09-16T11:02:54.976Z,43.03
2022-09-16T11:05:40.337Z,41.32
2022-09-16T11:08:38.454Z,40.84
2022-09-16T11:11:37.837Z,41.80
2022-09-16T11:14:21.837Z,40.98
2022-09-16T11:17:09.554Z,43.21
2022-09-16T11:20:11.734Z,42.30
2022-09-16T11:23:01.600Z,43.02
2022-09-16T11:25:48.938Z,42.67
2022-09-16T11:28:41.719Z,42.80
2022-09-16T11:31:41.228Z,43.25
2022-09-16T11:34:15.832Z,44.09
2022-09-16T11:37:01.296Z,45.77
2022-09-16T11:39:53.252Z,47.89
2022-09-16T11:42:28.555Z,49.30
2022-09-16T11:45:09.313Z,50.86
2022-09-16T11:48:14.786Z,52.07
2022-09-16T11:50:53.020Z,55.57
2022-09-16T11:54:04.846Z,56.82
2022-09-16T11:56:41.818Z,57.35
2022-09-16T11:59:36.041Z,59.88
2022-09-16T12:02:10.280Z,61.27
2022-09-16T12:04:59.001Z,60.31
2022-09-16T12:07:33.904Z,60.84
2022-09-16T12:10:26.407Z,62.69
2022-09-16T12:13:11.344Z,64.30
2022-09-16T12:16:04.467Z,64.73
2022-09-16T12:18:43.030Z,65.45
2022-09-16T12:21:21.196Z,65.13
2022-09-16T12:23:57.634Z,63.37
2022-09-16T12:26:31.007Z,63.32
2022-09-16T12:29:17.314Z,62.53
2022-09-16T12:32:18.587Z,62.78
2022-09-16T12:34:56.328Z,63.67
2022-09-16T12:37:40.069Z,63.03
2022-09-16T12:40:34.979Z,62.22
2022-09-16T12:43:16.415Z,58.07
2022-09-16T12:46:05.592Z,56.38
2022-09-16T12:48:57.521Z,52.48
2022-09-16T12:51:55.545Z,54.75
2022-09-16T12:54:57.118Z,54.46
2022-09-16T12:57:33.098Z,57.14
2022-09-16T13:00:24.143Z,53.47
2022-09-16T13:03:09.755Z,54.64
2022-09-16T13:05:41.003Z,55.95
2022-09-16T13:08:23.349Z,53.37
2022-09-16T13:14:03.512Z,53.72
2022-09-16T13:16:33.480Z,53.46
2022-09-16T13:19:32.574Z,49.04
2022-09-16T13:22:24.299Z,53.76
2022-09-16T13:25:06.130Z,55.24
2022-09-16T13:27:54.920Z,54.63
2022-09-16T13:30:36.684Z,54.91
2022-09-16T13:33:09.599Z,56.15
2022-09-16T13:35:42.519Z,56.45
2022-09-16T13:38:15.237Z,56.00
2022-09-16T13:41:02.259Z,53.30
2022-09-16T13:43:51.936Z,55.52
2022-09-16T13:46:32.375Z,56.22
2022-09-16T13:49:05.346Z,55.13
2022-09-16T13:51:46.517Z,55.93
2022-09-16T13:55:06.300Z,54.82
2022-09-16T13:57:50.200Z,54.70
2022-09-16T14:00:24.153Z,55.42
2022-09-16T14:03:28.543Z,56.26
2022-09-16T14:06:10.732Z,56.29
2022-09-16T14:08:46.825Z,53.66
2022-09-16T14:11:17.482Z,54.26
2022-09-16T14:14:05.198Z,52.17
2022-09-16T14:16:35.598Z,51.25
2022-09-16T14:19:08.208Z,49.62
2022-09-16T14:21:35.210Z,49.98
2022-09-16T14:24:42.230Z,48.87
2022-09-16T14:27:28.868Z,48.80
2022-09-16T14:30:00.703Z,48.50
2022-09-16T14:32:31.579Z,48.94
2022-09-16T14:35:02.738Z,49.95
2022-09-16T14:37:32.136Z,50.05
2022-09-16T14:40:07.817Z,51.43
2022-09-16T14:42:34.986Z,52.22
2022-09-16T14:45:03.318Z,51.58
2022-09-16T14:47:52.275Z,51.46
2022-09-16T14:50:23.849Z,51.31
2022-09-16T14:52:59.380Z,50.74
2022-09-16T14:55:30.187Z,51.12
2022-09-16T14:57:58.964Z,50.97
2022-09-16T15:00:32.026Z,51.81
2022-09-16T15:03:10.408Z,52.22
2022-09-16T15:05:41.157Z,52.90
2022-09-16T15:08:20.302Z,52.75
2022-09-16T15:10:52.290Z,52.15
2022-09-16T15:13:24.473Z,51.89
2022-09-16T15:16:18.392Z,53.40
2022-09-16T15:19:02.523Z,54.86
2022-09-16T15:21:35.267Z,55.71
2022-09-16T15:24:14.450Z,56.96
2022-09-16T15:26:46.723Z,58.16
2022-09-16T15:29:20.818Z,58.58
2022-09-16T15:31:48.386Z,58.82
2022-09-16T15:34:21.017Z,59.18
2022-09-16T15:36:53.522Z,59.34
2022-09-16T15:39:37.517Z,59.99
2022-09-16T15:42:10.511Z,59.95
2022-09-16T15:44:43.316Z,60.18
2022-09-16T15:47:29.192Z,60.25
2022-09-16T15:50:03.247Z,60.74
2022-09-16T15:52:35.113Z,61.18
2022-09-16T15:55:07.068Z,61.74
2022-09-16T15:57:39.151Z,61.42
2022-09-16T16:00:13.080Z,61.69
2022-09-16T16:03:02.094Z,61.97
2022-09-16T16:05:31.318Z,62.40
2022-09-16T16:08:07.630Z,63.14
2022-09-16T16:10:36.861Z,63.52
2022-09-16T16:13:06.642Z,63.84
2022-09-16T16:15:35.581Z,63.63
2022-09-16T16:18:06.025Z,63.91
2022-09-16T16:20:34.757Z,64.00
2022-09-16T16:23:02.429Z,64.47
2022-09-16T16:25:29.947Z,65.14
2022-09-16T16:27:56.839Z,65.54
2022-09-16T16:30:23.967Z,66.15
2022-09-16T16:32:50.949Z,66.84
2022-09-16T16:35:18.399Z,66.85
2022-09-16T16:37:47.214Z,67.15
2022-09-16T16:40:15.367Z,67.47
2022-09-16T16:42:44.030Z,68.12
2022-09-16T16:45:14.830Z,68.55
2022-09-16T16:47:42.764Z,68.59
2022-09-16T16:50:10.334Z,68.04
2022-09-16T16:52:37.565Z,69.21
2022-09-16T16:55:05.436Z,68.97
2022-09-16T16:57:32.466Z,68.84
2022-09-16T16:59:59.390Z,69.63
2022-09-16T17:02:26.465Z,69.75
2022-09-16T17:04:53.490Z,69.63
2022-09-16T17:07:28.209Z,69.68
2022-09-16T17:09:59.304Z,70.37
2022-09-16T17:12:27.275Z,70.14
2022-09-16T17:14:54.323Z,71.06
2022-09-16T17:17:21.329Z,70.79
2022-09-16T17:19:48.234Z,70.76
2022-09-16T17:22:16.163Z,70.95
2022-09-16T17:24:43.027Z,70.91
2022-09-16T17:27:10.049Z,71.00
2022-09-16T17:29:37.022Z,70.94
2022-09-16T17:32:04.023Z,70.64
2022-09-16T17:34:31.358Z,71.12
2022-09-16T17:36:58.784Z,71.19
2022-09-16T17:39:26.365Z,71.39
2022-09-16T17:41:56.685Z,72.06
2022-09-16T17:44:24.779Z,71.71
2022-09-16T17:46:51.814Z,71.47
2022-09-16T17:49:23.937Z,71.88
2022-09-16T17:51:51.904Z,72.09
2022-09-16T17:54:19.350Z,72.32
2022-09-16T17:56:46.584Z,71.92
2022-09-16T17:59:15.758Z,71.99
2022-09-16T18:01:42.953Z,72.57
2022-09-16T18:04:10.227Z,72.34
2022-09-16T18:06:42.970Z,72.37
2022-09-16T18:09:10.401Z,72.47
2022-09-16T18:11:38.810Z,72.11
2022-09-16T18:14:08.394Z,72.19
2022-09-16T18:16:36.060Z,71.98
2022-09-16T18:19:04.189Z,71.78
2022-09-16T18:21:32.015Z,72.08
2022-09-16T18:24:04.205Z,72.11
2022-09-16T18:26:32.052Z,72.11
2022-09-16T18:29:10.900Z,72.50
2022-09-16T18:31:43.865Z,72.44
2022-09-16T18:34:11.409Z,72.84
2022-09-16T18:36:39.507Z,72.79
2022-09-16T18:39:10.619Z,73.07
2022-09-16T18:41:40.170Z,72.84
2022-09-16T18:44:23.800Z,73.21
2022-09-16T18:46:51.772Z,73.06
2022-09-16T18:49:21.476Z,73.20
2022-09-16T18:51:51.969Z,73.45
2022-09-16T18:54:29.024Z,73.53
2022-09-16T18:56:57.240Z,74.25
2022-09-16T18:59:28.478Z,73.88
2022-09-16T19:01:58.689Z,74.17
2022-09-16T19:04:29.321Z,74.25
2022-09-16T19:06:59.453Z,74.29
2022-09-16T19:09:26.538Z,74.57
2022-09-16T19:11:55.130Z,74.63
2022-09-16T19:14:24.971Z,74.74
2022-09-16T19:16:53.025Z,75.03
2022-09-16T19:19:20.836Z,75.27
2022-09-16T19:21:48.266Z,75.24
2022-09-16T19:24:17.988Z,75.26
2022-09-16T19:26:46.648Z,75.51
2022-09-16T19:29:15.502Z,75.72
2022-09-16T19:31:44.425Z,76.48
2022-09-16T19:34:12.646Z,76.87
2022-09-16T19:36:40.340Z,77.81
2022-09-16T19:39:08.419Z,79.32
2022-09-16T19:41:37.424Z,79.78
2022-09-16T19:44:07.679Z,79.93
2022-09-16T19:46:37.365Z,81.67
2022-09-16T19:49:05.400Z,82.19
2022-09-16T19:51:33.857Z,81.64
2022-09-16T19:54:01.373Z,82.20
2022-09-16T19:56:31.680Z,81.70
2022-09-16T19:59:01.477Z,81.24
2022-09-16T20:01:31.944Z,81.73
2022-09-16T20:04:00.896Z,82.17
2022-09-16T20:06:32.621Z,81.68
2022-09-16T20:09:02.039Z,81.62
2022-09-16T20:11:31.973Z,81.58
2022-09-16T20:14:01.835Z,82.80
2022-09-16T20:16:31.900Z,82.84
2022-09-16T20:18:59.142Z,83.20
2022-09-16T20:21:27.204Z,83.26
2022-09-16T20:23:55.098Z,83.34
2022-09-16T20:26:25.229Z,84.29
2022-09-16T20:28:55.062Z,84.35
2022-09-16T20:31:25.351Z,84.67
2022-09-16T20:33:52.956Z,84.68
2022-09-16T20:36:22.686Z,85.16
2022-09-16T20:38:50.690Z,85.75
2022-09-16T20:41:22.205Z,85.85
2022-09-16T20:43:51.441Z,85.28
2022-09-16T20:46:29.895Z,85.88
2022-09-16T20:48:59.336Z,85.44
2022-09-16T20:51:33.694Z,85.43
2022-09-16T20:54:08.303Z,86.03
2022-09-16T20:56:39.086Z,86.27
2022-09-16T20:59:13.099Z,85.91
2022-09-16T21:01:41.708Z,85.71
2022-09-16T21:04:17.802Z,85.82
2022-09-16T21:06:46.187Z,86.19
2022-09-16T21:09:15.226Z,86.31
2022-09-16T21:11:45.164Z,86.55
2022-09-16T21:14:15.342Z,86.66
2022-09-16T21:16:44.297Z,86.68
2022-09-16T21:19:15.355Z,86.71
2022-09-16T21:21:44.682Z,86.81
2022-09-16T21:24:11.874Z,87.44
2022-09-16T21:26:40.287Z,87.61
2022-09-16T21:29:13.704Z,87.38
2022-09-16T21:31:42.320Z,87.80
2022-09-16T21:34:20.435Z,87.90
2022-09-16T21:36:48.777Z,88.03
2022-09-16T21:39:17.342Z,88.52
2022-09-16T21:41:46.071Z,88.03
2022-09-16T21:44:14.498Z,88.22
2022-09-16T21:46:45.511Z,88.14
2022-09-16T21:49:22.957Z,87.86
2022-09-16T21:51:54.610Z,88.01
2022-09-16T21:54:22.621Z,88.25
2022-09-16T21:56:50.675Z,88.67
2022-09-16T21:59:21.922Z,89.42
2022-09-16T22:01:51.294Z,89.76
2022-09-16T22:04:23.241Z,90.29
2022-09-16T22:06:54.779Z,89.86
2022-09-16T22:09:21.986Z,90.13
2022-09-16T22:11:49.607Z,89.85
2022-09-16T22:14:17.138Z,89.55
2022-09-16T22:16:44.677Z,89.84
2022-09-16T22:19:17.325Z,90.13
2022-09-16T22:21:50.482Z,90.62
2022-09-16T22:24:20.733Z,90.77
2022-09-16T22:26:50.134Z,90.62
2022-09-16T22:29:17.099Z,90.91
2022-09-16T22:31:44.235Z,90.55
2022-09-16T22:34:11.275Z,90.86
2022-09-16T22:36:39.252Z,92.22
2022-09-16T22:39:15.122Z,92.16
2022-09-16T22:41:42.523Z,93.83
2022-09-16T22:44:10.168Z,93.37
2022-09-16T22:46:46.391Z,92.96
2022-09-16T22:49:15.209Z,92.88
2022-09-16T22:51:42.612Z,92.64
2022-09-16T22:54:12.038Z,92.83
2022-09-16T22:56:38.989Z,92.84
2022-09-16T22:59:08.394Z,94.17
2022-09-16T23:01:39.851Z,93.60
2022-09-16T23:04:09.490Z,94.04
2022-09-16T23:06:38.391Z,93.24
2022-09-16T23:09:07.607Z,93.22
2022-09-16T23:11:35.884Z,93.16
2022-09-16T23:14:04.239Z,93.03
2022-09-16T23:16:34.017Z,92.97
2022-09-16T23:19:04.284Z,93.86
2022-09-16T23:21:31.727Z,94.34
2022-09-16T23:24:01.674Z,95.24
2022-09-16T23:26:32.225Z,95.55
2022-09-16T23:29:01.191Z,95.79
2022-09-16T23:31:33.692Z,95.65
2022-09-16T23:34:01.201Z,95.76
2022-09-16T23:36:28.733Z,95.62
2022-09-16T23:38:56.110Z,95.01
2022-09-16T23:41:27.819Z,94.72
2022-09-16T23:43:56.577Z,94.30
2022-09-16T23:46:26.271Z,94.40
2022-09-16T23:48:53.555Z,94.70
2022-09-16T23:51:26.035Z,95.98
2022-09-16T23:53:56.382Z,95.68
2022-09-16T23:56:23.451Z,95.70
2022-09-16T23:58:51.174Z,96.50
